createdAt,value
2022-10-05T00:02:16.638Z,63.50
2022-10-05T00:04:43.402Z,63.90
2022-10-05T00:07:18.470Z,63.20
2022-10-05T00:09:53.973Z,63.50
2022-10-05T00:12:22.075Z,64.00
2022-10-05T00:14:51.064Z,63.30
2022-10-05T00:17:25.998Z,63.30
2022-10-05T00:19:54.057Z,63.40
2022-10-05T00:22:23.670Z,62.90
2022-10-05T00:24:56.515Z,63.50
2022-10-05T00:27:26.197Z,63.40
2022-10-05T00:29:59.987Z,63.70
2022-10-05T00:32:27.057Z,64.00
2022-10-05T00:34:54.421Z,63.10
2022-10-05T00:37:21.245Z,63.00
2022-10-05T00:39:49.677Z,63.20
2022-10-05T00:42:44.722Z,63.50
2022-10-05T00:45:18.337Z,63.50
2022-10-05T00:48:03.378Z,62.90
2022-10-05T00:50:47.797Z,63.60
2022-10-05T00:53:29.454Z,62.90
2022-10-05T00:56:17.936Z,63.60
2022-10-05T00:59:05.881Z,64.00
2022-10-05T01:01:41.084Z,64.10
2022-10-05T01:04:10.573Z,63.80
2022-10-05T01:07:03.939Z,63.80
2022-10-05T01:09:50.376Z,63.90
2022-10-05T01:12:48.678Z,63.80
2022-10-05T01:15:23.161Z,63.90
2022-10-05T01:18:11.814Z,63.60
2022-10-05T01:20:59.294Z,63.70
2022-10-05T01:23:52.062Z,64.00
2022-10-05T01:26:52.654Z,64.20
2022-10-05T01:29:31.331Z,64.40
2022-10-05T01:32:29.866Z,64.40
2022-10-05T01:35:21.936Z,64.60
2022-10-05T01:38:18.820Z,65.00
2022-10-05T01:41:15.363Z,64.40
2022-10-05T01:43:51.531Z,65.00
2022-10-05T01:46:27.047Z,65.00
2022-10-05T01:49:14.824Z,64.50
2022-10-05T01:51:59.981Z,64.60
2022-10-05T01:54:55.808Z,65.50
2022-10-05T01:57:43.739Z,65.10
2022-10-05T02:00:15.026Z,65.40
2022-10-05T02:03:01.730Z,64.50
2022-10-05T02:05:55.493Z,65.60
2022-10-05T02:08:31.149Z,65.90
2022-10-05T02:11:08.748Z,64.80
2022-10-05T02:13:48.459Z,65.90
2022-10-05T02:16:42.472Z,65.00
2022-10-05T02:19:18.141Z,66.00
2022-10-05T02:21:50.122Z,66.00
2022-10-05T02:24:27.064Z,65.90
2022-10-05T02:26:56.539Z,66.20
2022-10-05T02:29:27.584Z,65.80
2022-10-05T02:32:02.741Z,65.70
2022-10-05T02:34:43.238Z,65.70
2022-10-05T02:37:47.807Z,66.00
2022-10-05T02:40:39.709Z,67.10
2022-10-05T02:43:15.429Z,66.20
2022-10-05T02:46:03.465Z,66.90
2022-10-05T02:48:46.808Z,66.30
2022-10-05T02:51:22.099Z,66.90
2022-10-05T02:54:14.340Z,66.70
2022-10-05T02:56:47.114Z,66.80
2022-10-05T02:59:21.996Z,66.30
2022-10-05T03:02:04.502Z,66.50
2022-10-05T03:04:41.391Z,66.40
2022-10-05T03:07:21.112Z,66.70
2022-10-05T03:10:14.977Z,66.30
2022-10-05T03:12:51.126Z,66.90
2022-10-05T03:15:35.605Z,65.70
2022-10-05T03:18:08.181Z,66.50
2022-10-05T03:21:15.308Z,66.50
2022-10-05T03:24:17.229Z,66.90
2022-10-05T03:27:01.476Z,66.90
2022-10-05T03:29:33.907Z,66.80
2022-10-05T03:32:29.673Z,66.40
2022-10-05T03:35:00.867Z,66.20
2022-10-05T03:37:53.265Z,66.40
2022-10-05T03:40:34.581Z,66.60
2022-10-05T03:43:27.233Z,66.50
2022-10-05T03:46:04.780Z,66.30
2022-10-05T03:48:48.177Z,66.10
2022-10-05T03:51:37.229Z,66.50
2022-10-05T03:54:22.880Z,66.60
2022-10-05T03:56:55.537Z,66.70
2022-10-05T03:59:32.567Z,66.00
2022-10-05T04:02:05.811Z,65.80
2022-10-05T04:05:04.278Z,65.50
2022-10-05T04:07:43.506Z,65.90
2022-10-05T04:10:21.678Z,66.10
2022-10-05T04:12:59.780Z,65.90
2022-10-05T04:15:42.991Z,65.80
2022-10-05T04:18:26.153Z,65.80
2022-10-05T04:21:00.393Z,65.60
2022-10-05T04:23:38.698Z,65.10
2022-10-05T04:26:15.341Z,65.30
2022-10-05T04:29:04.791Z,65.10
2022-10-05T04:31:48.907Z,65.30
2022-10-05T04:34:27.441Z,65.00
2022-10-05T04:37:00.913Z,65.00
2022-10-05T04:39:53.374Z,64.90
2022-10-05T04:42:32.042Z,64.40
2022-10-05T04:45:20.130Z,64.60
2022-10-05T04:47:56.023Z,64.00
2022-10-05T04:50:34.797Z,63.90
2022-10-05T04:53:15.374Z,64.00
2022-10-05T04:55:53.883Z,64.40
2022-10-05T04:58:42.429Z,64.00
2022-10-05T05:01:42.457Z,64.00
2022-10-05T05:04:36.645Z,63.90
2022-10-05T05:07:31.148Z,63.90
2022-10-05T05:10:12.602Z,63.70
2022-10-05T05:12:53.174Z,64.30
2022-10-05T05:15:35.409Z,64.60
2022-10-05T05:18:22.773Z,63.50
2022-10-05T05:21:16.898Z,63.60
2022-10-05T05:24:02.640Z,63.90
2022-10-05T05:26:52.762Z,62.80
2022-10-05T05:29:23.142Z,63.50
2022-10-05T05:31:53.368Z,62.70
2022-10-05T05:34:37.439Z,62.70
2022-10-05T05:37:15.750Z,63.70
2022-10-05T05:39:49.226Z,64.10
2022-10-05T05:42:31.849Z,63.70
2022-10-05T05:45:06.951Z,63.20
2022-10-05T05:47:37.699Z,63.70
2022-10-05T05:50:48.866Z,63.40
2022-10-05T05:53:31.613Z,63.90
2022-10-05T05:56:23.946Z,63.70
2022-10-05T05:59:06.402Z,63.80
2022-10-05T06:01:44.139Z,64.30
2022-10-05T06:04:28.881Z,63.90
2022-10-05T06:06:58.103Z,63.80
2022-10-05T06:09:46.722Z,63.70
2022-10-05T06:12:38.017Z,64.40
2022-10-05T06:15:34.006Z,64.40
2022-10-05T06:18:09.550Z,63.80
2022-10-05T06:20:59.392Z,64.00
2022-10-05T06:23:37.261Z,64.40
2022-10-05T06:26:26.673Z,63.90
2022-10-05T06:29:01.638Z,64.20
2022-10-05T06:31:43.387Z,64.30
2022-10-05T06:34:38.302Z,64.40
2022-10-05T06:37:19.140Z,64.50
2022-10-05T06:40:07.945Z,64.30
2022-10-05T06:43:10.283Z,64.60
2022-10-05T06:46:18.351Z,64.20
2022-10-05T06:49:23.296Z,64.50
2022-10-05T06:52:24.137Z,64.40
2022-10-05T06:55:07.087Z,64.30
2022-10-05T06:58:00.196Z,64.20
2022-10-05T07:00:43.925Z,64.10
2022-10-05T07:03:39.361Z,64.30
2022-10-05T07:06:29.974Z,64.10
2022-10-05T07:09:26.751Z,64.90
2022-10-05T07:11:58.450Z,64.70
2022-10-05T07:14:54.464Z,63.30
2022-10-05T07:18:00.494Z,64.00
2022-10-05T07:20:30.687Z,64.10
2022-10-05T07:23:39.824Z,64.00
2022-10-05T07:26:14.864Z,64.00
2022-10-05T07:28:54.946Z,64.00
2022-10-05T07:31:47.189Z,63.90
2022-10-05T07:34:33.101Z,63.80
2022-10-05T07:37:54.075Z,63.60
2022-10-05T07:40:25.893Z,63.90
2022-10-05T07:43:15.769Z,63.60
2022-10-05T07:45:52.609Z,63.70
2022-10-05T07:48:22.427Z,63.80
2022-10-05T07:51:01.962Z,63.40
2022-10-05T07:54:01.917Z,63.60
2022-10-05T07:56:44.233Z,63.50
2022-10-05T07:59:25.118Z,63.90
2022-10-05T08:02:02.739Z,63.30
2022-10-05T08:04:40.763Z,63.40
2022-10-05T08:07:15.565Z,63.30
2022-10-05T08:09:59.519Z,63.40
2022-10-05T08:12:40.040Z,62.60
2022-10-05T08:15:16.057Z,62.90
2022-10-05T08:18:10.272Z,63.30
2022-10-05T08:20:42.658Z,63.20
2022-10-05T08:23:17.917Z,63.00
2022-10-05T08:25:59.889Z,62.90
2022-10-05T08:28:39.115Z,63.20
2022-10-05T08:31:22.683Z,62.80
2022-10-05T08:34:12.726Z,62.70
2022-10-05T08:36:39.331Z,62.80
2022-10-05T08:39:16.006Z,61.90
2022-10-05T08:41:45.948Z,62.70
2022-10-05T08:44:42.022Z,62.60
2022-10-05T08:47:36.477Z,62.90
2022-10-05T08:50:18.505Z,63.30
2022-10-05T08:53:09.205Z,62.70
2022-10-05T08:55:54.577Z,62.30
2022-10-05T08:58:28.970Z,62.60
2022-10-05T09:01:18.865Z,61.80
2022-10-05T09:04:22.162Z,61.80
2022-10-05T09:07:05.144Z,61.60
2022-10-05T09:10:16.773Z,61.30
2022-10-05T09:13:14.931Z,61.50
2022-10-05T09:16:00.236Z,61.30
2022-10-05T09:18:51.286Z,61.70
2022-10-05T09:21:43.245Z,61.40
2022-10-05T09:24:12.638Z,60.70
2022-10-05T09:26:42.471Z,60.00
2022-10-05T09:29:46.527Z,60.40
2022-10-05T09:32:44.265Z,60.00
2022-10-05T09:35:48.566Z,60.10
2022-10-05T09:38:34.062Z,59.60
2022-10-05T09:41:00.742Z,59.90
2022-10-05T09:43:30.559Z,58.80
2022-10-05T09:46:35.664Z,58.90
2022-10-05T09:49:24.644Z,58.80
2022-10-05T09:52:20.635Z,58.80
2022-10-05T09:55:08.834Z,59.10
2022-10-05T09:58:02.451Z,58.70
2022-10-05T10:00:43.408Z,58.70
2022-10-05T10:03:19.352Z,58.50
2022-10-05T10:06:11.247Z,58.40
2022-10-05T10:09:09.506Z,59.10
2022-10-05T10:11:57.874Z,58.80
2022-10-05T10:14:59.278Z,58.50
2022-10-05T10:17:57.746Z,58.60
2022-10-05T10:20:45.796Z,58.10
2022-10-05T10:23:15.458Z,58.20
2022-10-05T10:26:13.342Z,58.70
2022-10-05T10:29:07.005Z,58.50
2022-10-05T10:31:59.741Z,58.40
2022-10-05T10:35:06.904Z,58.40
2022-10-05T10:37:58.596Z,58.50
2022-10-05T10:40:30.338Z,58.20
2022-10-05T10:43:22.154Z,58.50
2022-10-05T10:46:07.570Z,58.70
2022-10-05T10:48:40.470Z,58.80
2022-10-05T10:51:30.410Z,59.10
2022-10-05T10:54:12.370Z,58.80
2022-10-05T10:56:47.826Z,58.80
2022-10-05T10:59:17.761Z,58.60
2022-10-05T11:02:10.445Z,59.10
2022-10-05T11:05:04.906Z,59.00
2022-10-05T11:07:31.584Z,59.00
2022-10-05T11:10:27.396Z,58.70
2022-10-05T11:13:15.273Z,59.10
2022-10-05T11:19:16.200Z,59.50
2022-10-05T11:22:01.561Z,59.40
2022-10-05T11:25:18.606Z,60.00
2022-10-05T11:28:13.344Z,59.30
2022-10-05T11:31:00.936Z,59.50
2022-10-05T11:34:01.669Z,59.30
2022-10-05T11:36:48.850Z,59.10
2022-10-05T11:39:33.357Z,59.40
2022-10-05T11:42:26.526Z,59.00
2022-10-05T11:45:01.914Z,59.10
2022-10-05T11:47:35.410Z,58.80
2022-10-05T11:50:17.754Z,58.70
2022-10-05T11:52:58.254Z,58.80
2022-10-05T11:55:42.585Z,58.70
2022-10-05T11:58:33.979Z,58.80
2022-10-05T12:01:05.300Z,59.20
2022-10-05T12:03:48.599Z,57.70
2022-10-05T12:06:34.064Z,57.60
2022-10-05T12:09:16.118Z,57.50
2022-10-05T12:11:57.622Z,57.50
2022-10-05T12:14:33.362Z,57.10
2022-10-05T12:17:26.076Z,56.40
2022-10-05T12:19:58.896Z,56.20
2022-10-05T12:22:41.606Z,56.30
2022-10-05T12:25:32.750Z,56.20
2022-10-05T12:28:05.043Z,56.20
2022-10-05T12:30:52.960Z,56.50
2022-10-05T12:33:49.508Z,56.10
2022-10-05T12:37:03.124Z,55.60
2022-10-05T12:39:56.873Z,55.50
2022-10-05T12:43:08.393Z,55.30
2022-10-05T12:45:45.912Z,55.20
2022-10-05T12:48:28.109Z,54.60
2022-10-05T12:51:09.172Z,54.60
2022-10-05T12:53:59.332Z,54.80
2022-10-05T12:56:41.128Z,54.70
2022-10-05T12:59:22.180Z,54.60
2022-10-05T13:02:04.287Z,54.20
2022-10-05T13:04:50.334Z,54.30
2022-10-05T13:07:31.724Z,54.20
2022-10-05T13:10:11.212Z,54.20
2022-10-05T13:13:18.206Z,54.50
2022-10-05T13:16:06.336Z,54.70
2022-10-05T13:18:49.759Z,54.90
2022-10-05T13:21:57.642Z,55.20
2022-10-05T13:24:31.154Z,55.50
2022-10-05T13:27:23.614Z,55.70
2022-10-05T13:30:06.373Z,56.00
2022-10-05T13:33:00.654Z,56.00
2022-10-05T13:35:44.293Z,56.20
2022-10-05T13:38:52.537Z,56.50
2022-10-05T13:41:30.604Z,56.80
2022-10-05T13:44:00.046Z,57.10
2022-10-05T13:46:46.362Z,56.50
2022-10-05T13:49:29.398Z,56.80
2022-10-05T13:52:25.058Z,56.50
2022-10-05T13:55:25.292Z,56.40
2022-10-05T13:58:13.530Z,56.10
2022-10-05T14:00:48.100Z,55.70
2022-10-05T14:04:04.946Z,55.40
2022-10-05T14:06:37.415Z,55.40
2022-10-05T14:09:04.383Z,55.40
2022-10-05T14:11:31.838Z,54.60
2022-10-05T14:14:10.866Z,54.70
2022-10-05T14:16:55.710Z,54.60
2022-10-05T14:19:31.039Z,54.50
2022-10-05T14:22:02.934Z,53.60
2022-10-05T14:24:44.833Z,53.60
2022-10-05T14:27:27.419Z,52.80
2022-10-05T14:30:16.498Z,52.60
2022-10-05T14:32:51.369Z,52.80
2022-10-05T14:35:23.898Z,53.10
2022-10-05T14:38:02.400Z,52.90
2022-10-05T14:40:37.189Z,53.10
2022-10-05T14:43:16.174Z,52.80
2022-10-05T14:45:55.010Z,53.00
2022-10-05T14:48:22.014Z,53.10
2022-10-05T14:51:03.190Z,53.10
2022-10-05T14:53:59.727Z,53.30
2022-10-05T14:56:33.068Z,53.40
2022-10-05T14:59:27.646Z,53.70
2022-10-05T15:02:12.602Z,53.90
2022-10-05T15:04:53.090Z,54.30
2022-10-05T15:07:36.033Z,53.80
2022-10-05T15:10:14.845Z,53.70
2022-10-05T15:12:46.734Z,53.60
2022-10-05T15:15:34.454Z,52.90
2022-10-05T15:18:19.538Z,52.70
2022-10-05T15:21:06.463Z,52.70
2022-10-05T15:23:53.143Z,53.20
2022-10-05T15:26:22.891Z,53.30
2022-10-05T15:29:08.386Z,53.40
2022-10-05T15:31:49.799Z,54.30
2022-10-05T15:34:40.417Z,54.00
2022-10-05T15:37:27.630Z,54.30
2022-10-05T15:40:01.780Z,54.30
2022-10-05T15:42:41.121Z,54.30
2022-10-05T15:45:42.839Z,54.50
2022-10-05T15:48:25.300Z,54.70
2022-10-05T15:51:15.164Z,55.00
2022-10-05T15:54:26.785Z,55.20
2022-10-05T15:57:13.382Z,55.30
2022-10-05T16:00:02.006Z,55.60
2022-10-05T16:02:55.669Z,55.60
2022-10-05T16:05:47.143Z,55.70
2022-10-05T16:08:46.511Z,55.30
2022-10-05T16:11:26.001Z,55.30
2022-10-05T16:14:23.643Z,55.20
2022-10-05T16:17:08.134Z,55.20
2022-10-05T16:19:43.707Z,55.00
2022-10-05T16:22:18.545Z,54.80
2022-10-05T16:25:17.948Z,54.40
2022-10-05T16:28:18.737Z,54.70
2022-10-05T16:30:59.730Z,54.90
2022-10-05T16:33:45.936Z,54.90
2022-10-05T16:36:32.070Z,54.90
2022-10-05T16:39:35.222Z,54.80
2022-10-05T16:42:34.666Z,55.20
2022-10-05T16:45:44.781Z,55.30
2022-10-05T16:48:34.874Z,55.50
2022-10-05T16:51:07.736Z,55.90
2022-10-05T16:53:43.860Z,55.90
2022-10-05T16:56:18.435Z,55.80
2022-10-05T16:58:50.888Z,55.90
2022-10-05T17:01:23.838Z,56.20
2022-10-05T17:04:28.267Z,56.50
2022-10-05T17:07:25.526Z,56.70
2022-10-05T17:10:19.152Z,56.70
2022-10-05T17:13:05.630Z,56.80
2022-10-05T17:15:54.284Z,57.10
2022-10-05T17:18:39.059Z,57.10
2022-10-05T17:21:17.076Z,57.10
2022-10-05T17:24:00.798Z,57.30
2022-10-05T17:26:45.477Z,57.30
2022-10-05T17:29:47.537Z,57.80
2022-10-05T17:32:17.346Z,58.10
2022-10-05T17:35:15.947Z,57.80
2022-10-05T17:38:05.258Z,58.20
2022-10-05T17:40:34.608Z,58.20
2022-10-05T17:43:05.434Z,57.60
2022-10-05T17:45:32.108Z,58.20
2022-10-05T17:48:04.864Z,57.90
2022-10-05T17:50:59.187Z,58.20
2022-10-05T17:53:54.700Z,58.40
2022-10-05T17:56:23.160Z,58.50
2022-10-05T17:58:54.467Z,58.30
2022-10-05T18:01:41.574Z,58.20
2022-10-05T18:04:11.374Z,58.60
2022-10-05T18:07:00.325Z,58.60
2022-10-05T18:09:27.700Z,58.40
2022-10-05T18:12:19.002Z,58.40
2022-10-05T18:15:07.493Z,58.80
2022-10-05T18:17:51.326Z,58.80
2022-10-05T18:20:18.194Z,58.80
2022-10-05T18:22:46.678Z,58.60
2022-10-05T18:25:29.325Z,58.80
2022-10-05T18:28:11.266Z,59.70
2022-10-05T18:31:09.784Z,59.50
2022-10-05T18:34:01.166Z,59.10
2022-10-05T18:36:49.969Z,59.10
2022-10-05T18:39:35.297Z,59.20
2022-10-05T18:42:25.344Z,59.20
2022-10-05T18:45:15.100Z,59.20
2022-10-05T18:48:12.397Z,59.50
2022-10-05T18:51:03.236Z,59.50
2022-10-05T18:53:38.845Z,59.60
2022-10-05T18:56:24.774Z,59.60
2022-10-05T18:59:15.122Z,59.70
2022-10-05T19:01:56.904Z,59.70
2022-10-05T19:04:42.285Z,59.80
2022-10-05T19:07:23.143Z,59.60
2022-10-05T19:09:58.809Z,59.90
2022-10-05T19:12:53.684Z,59.70
2022-10-05T19:15:42.097Z,60.00
2022-10-05T19:18:19.162Z,60.10
2022-10-05T19:21:06.025Z,60.50
2022-10-05T19:23:44.703Z,60.50
2022-10-05T19:26:18.458Z,60.70
2022-10-05T19:29:04.427Z,60.80
2022-10-05T19:31:48.087Z,60.90
2022-10-05T19:34:29.737Z,60.90
2022-10-05T19:37:09.871Z,61.10
2022-10-05T19:39:53.656Z,61.40
2022-10-05T19:42:44.322Z,61.30
2022-10-05T19:45:24.559Z,61.60
2022-10-05T19:48:28.041Z,62.20
2022-10-05T19:51:00.093Z,62.40
2022-10-05T19:53:36.306Z,64.60
2022-10-05T19:56:20.582Z,66.00
2022-10-05T19:58:48.800Z,66.50
2022-10-05T20:01:33.496Z,65.80
2022-10-05T20:04:00.176Z,66.90
2022-10-05T20:06:29.534Z,66.50
2022-10-05T20:08:59.824Z,66.60
2022-10-05T20:11:28.350Z,67.10
2022-10-05T20:13:55.055Z,67.50
2022-10-05T20:19:56.244Z,67.50
2022-10-05T20:22:33.339Z,68.90
2022-10-05T20:25:06.302Z,69.20
2022-10-05T20:27:50.202Z,69.00
2022-10-05T20:30:19.073Z,69.50
2022-10-05T20:32:53.385Z,68.70
2022-10-05T20:35:23.560Z,69.00
2022-10-05T20:37:50.351Z,68.70
2022-10-05T20:40:19.162Z,68.60
2022-10-05T20:42:46.766Z,68.50
2022-10-05T20:45:14.406Z,68.80
2022-10-05T20:47:42.115Z,69.00
2022-10-05T20:50:10.600Z,68.70
2022-10-05T20:52:37.923Z,69.40
2022-10-05T20:55:06.924Z,68.90
2022-10-05T20:57:33.664Z,69.10
2022-10-05T21:00:00.469Z,68.80
2022-10-05T21:02:27.223Z,68.80
2022-10-05T21:04:54.213Z,68.90
2022-10-05T21:07:21.634Z,68.80
2022-10-05T21:09:48.360Z,68.90
2022-10-05T21:12:16.478Z,69.10
2022-10-05T21:14:43.444Z,70.30
2022-10-05T21:17:11.875Z,69.30
2022-10-05T21:19:40.178Z,69.30
2022-10-05T21:22:09.370Z,69.00
2022-10-05T21:24:38.123Z,69.70
2022-10-05T21:27:05.838Z,68.70
2022-10-05T21:29:34.125Z,68.50
2022-10-05T21:32:00.955Z,68.00
2022-10-05T21:34:28.596Z,68.10
2022-10-05T21:36:55.318Z,68.20
2022-10-05T21:39:22.070Z,68.60
2022-10-05T21:41:49.760Z,68.40
2022-10-05T21:44:16.760Z,68.40
2022-10-05T21:46:43.625Z,68.30
2022-10-05T21:49:10.494Z,68.50
2022-10-05T21:51:37.765Z,68.20
2022-10-05T21:54:12.000Z,68.40
2022-10-05T21:56:41.929Z,69.40
2022-10-05T21:59:11.405Z,68.80
2022-10-05T22:01:38.292Z,68.90
2022-10-05T22:04:06.124Z,68.50
2022-10-05T22:06:34.195Z,68.80
2022-10-05T22:09:01.381Z,68.90
2022-10-05T22:11:28.979Z,68.60
2022-10-05T22:14:02.279Z,68.60
2022-10-05T22:16:32.591Z,69.50
2022-10-05T22:19:02.674Z,69.10
2022-10-05T22:21:30.475Z,68.50
2022-10-05T22:23:57.431Z,68.90
2022-10-05T22:26:24.622Z,69.30
2022-10-05T22:28:55.406Z,69.10
2022-10-05T22:31:22.248Z,69.40
2022-10-05T22:33:49.113Z,69.00
2022-10-05T22:36:16.182Z,69.20
2022-10-05T22:38:42.921Z,69.30
2022-10-05T22:41:11.177Z,69.30
2022-10-05T22:43:38.166Z,69.70
2022-10-05T22:46:12.550Z,69.20
2022-10-05T22:48:39.605Z,70.70
2022-10-05T22:51:06.765Z,69.60
2022-10-05T22:53:34.066Z,69.50
2022-10-05T22:56:08.968Z,70.50
2022-10-05T22:58:36.295Z,70.60
2022-10-05T23:01:05.902Z,69.80
2022-10-05T23:03:33.471Z,70.80
2022-10-05T23:06:21.472Z,70.00
2022-10-05T23:08:48.153Z,70.40
2022-10-05T23:11:27.566Z,70.00
2022-10-05T23:13:56.712Z,71.30
2022-10-05T23:16:26.132Z,69.90
2022-10-05T23:18:53.953Z,70.20
2022-10-05T23:21:22.590Z,70.00
2022-10-05T23:23:52.640Z,70.50
2022-10-05T23:26:24.814Z,70.00
2022-10-05T23:28:51.767Z,70.40
2022-10-05T23:31:25.272Z,69.70
2022-10-05T23:33:53.517Z,71.20
2022-10-05T23:36:22.742Z,70.10
2022-10-05T23:38:49.771Z,70.20
2022-10-05T23:41:17.351Z,69.50
2022-10-05T23:43:44.272Z,69.40
2022-10-05T23:46:11.906Z,69.30
2022-10-05T23:48:39.273Z,69.90
2022-10-05T23:51:07.365Z,69.50
2022-10-05T23:53:34.520Z,69.50
2022-10-05T23:56:01.256Z,69.50
2022-10-05T23:58:28.459Z,69.10
